Jump to content


SKYWEST AIRLINES FLIGHT OO3616 FLOWN ON 09-07-2017 BY CAPTAIN JIM BOERMAN

Pilot StatsCaptain Jim Boerman (LDP136) • 4,578.9 total hours • 1,395 total flights [View Logbook]
FLIGHT DETAILS
StatusReceived and approved on 2017-09-07 at 14:09:12
Origin AirportChicago-OHare Intl (KORD) • Chicago, Illinois, United States (668 feet MSL)
Filed Flight PlanKORD KUBBS J547 FNT Q824 MENKO Q848 ILEMU Q824 DESKI Q848 LETAK Q824 YUL CYUL
Destination AirportMontreal-Pierre-Elliott-Trudeau (CYUL) • Montreal, Quebec, Canada (118 feet MSL)
Alternate AirportBurlington Intl (KBTV) • Burlington, Vermont, United States (335 feet MSL)
AirlineSkywest Airlines
AircraftEmbraer E-175 (E75 / E175)
FS Aircraft UsedEmbraer 175 UAX
Cruising AltitudeFL330
Distance Flown647 nautical miles
Passengers Onboard79 passengers (94.05% full)
DEPARTURE DETAILS
Time Out11:30:22
Taxi Data81,500 lbs total with 13,262 lbs of fuel onboard
Takeoff Data11:43:15 (13 minutes after leaving gate/ramp) • 80,979 lbs total • 6° pitch at 157 knots
Departure METARKORD 071451Z 30012KT 10SM FEW030 FEW070 SCT160 BKN250 18/08 A3005 RMK AO2 SLP174 T01780083 53005
ARRIVAL DETAILS
Landing Data14:26:46 • 75,289 lbs total • 4° pitch doing 133 knots at a rate of -86.89 feet/minute with 6,784 lbs of fuel onboard
Time In14:34:52 (8 minutes after landing)
Ramp Weight75,008 lbs total
Total Fuel Used6,478 lbs
Total Block Time02:01:49 (2 hours) while 21 minutes were spent on the ground
Arrival METARCYUL 071800Z 22011KT 15SM SCT015TCU BKN022 BKN120 18/15 A2975 RMK TCU3SC2AC1 SLP077 DENSITY ALT 800FT
MISCELLANEOUS DETAILS
LiveDISPATCH Version4.8.3.1
FS Version
FSUIPC Version4.93
OS VersionWindows 7 32-bit
Screen Resolution1920 x 1080
Pilot's CommentsNo Comments Reported
FLIGHT MAP